sensor_id;sensor_type;location;lat;lon;timestamp;temperature;humidity
2941;DHT22;1480;51.456;6.670;2022-07-23T00:01:44;19.80;88.20
2941;DHT22;1480;51.456;6.670;2022-07-23T00:04:13;19.90;87.90
2941;DHT22;1480;51.456;6.670;2022-07-23T00:06:40;19.90;87.20
2941;DHT22;1480;51.456;6.670;2022-07-23T00:09:07;19.90;87.50
2941;DHT22;1480;51.456;6.670;2022-07-23T00:11:34;19.90;87.60
2941;DHT22;1480;51.456;6.670;2022-07-23T00:14:01;20.00;87.50
2941;DHT22;1480;51.456;6.670;2022-07-23T00:16:29;20.00;87.40
2941;DHT22;1480;51.456;6.670;2022-07-23T00:18:56;20.20;87.40
2941;DHT22;1480;51.456;6.670;2022-07-23T00:21:23;20.20;86.80
2941;DHT22;1480;51.456;6.670;2022-07-23T00:23:50;20.20;86.50
2941;DHT22;1480;51.456;6.670;2022-07-23T00:26:17;20.20;86.40
2941;DHT22;1480;51.456;6.670;2022-07-23T00:28:44;20.20;86.90
2941;DHT22;1480;51.456;6.670;2022-07-23T00:31:10;20.20;85.90
2941;DHT22;1480;51.456;6.670;2022-07-23T00:33:39;20.10;86.10
2941;DHT22;1480;51.456;6.670;2022-07-23T00:36:07;20.10;86.40
2941;DHT22;1480;51.456;6.670;2022-07-23T00:38:34;20.00;87.00
2941;DHT22;1480;51.456;6.670;2022-07-23T00:41:01;19.90;87.40
2941;DHT22;1480;51.456;6.670;2022-07-23T00:43:28;19.90;87.70
2941;DHT22;1480;51.456;6.670;2022-07-23T00:45:55;19.80;88.00
2941;DHT22;1480;51.456;6.670;2022-07-23T00:48:22;19.90;87.80
2941;DHT22;1480;51.456;6.670;2022-07-23T00:50:50;19.90;87.30
2941;DHT22;1480;51.456;6.670;2022-07-23T00:53:17;20.00;86.90
2941;DHT22;1480;51.456;6.670;2022-07-23T00:55:45;20.00;86.10
2941;DHT22;1480;51.456;6.670;2022-07-23T00:58:12;20.00;86.10
2941;DHT22;1480;51.456;6.670;2022-07-23T01:00:40;19.90;85.60
2941;DHT22;1480;51.456;6.670;2022-07-23T01:03:06;19.90;85.30
2941;DHT22;1480;51.456;6.670;2022-07-23T01:05:33;19.90;85.80
2941;DHT22;1480;51.456;6.670;2022-07-23T01:08:02;19.90;84.20
2941;DHT22;1480;51.456;6.670;2022-07-23T01:10:29;19.90;85.40
2941;DHT22;1480;51.456;6.670;2022-07-23T01:12:59;19.90;85.70
2941;DHT22;1480;51.456;6.670;2022-07-23T01:15:27;20.00;85.60
2941;DHT22;1480;51.456;6.670;2022-07-23T01:17:54;20.00;86.00
2941;DHT22;1480;51.456;6.670;2022-07-23T01:20:21;20.00;86.20
2941;DHT22;1480;51.456;6.670;2022-07-23T01:22:50;20.00;85.80
2941;DHT22;1480;51.456;6.670;2022-07-23T01:25:18;20.00;85.40
2941;DHT22;1480;51.456;6.670;2022-07-23T01:27:54;20.00;85.30
2941;DHT22;1480;51.456;6.670;2022-07-23T01:30:21;20.00;85.20
2941;DHT22;1480;51.456;6.670;2022-07-23T01:32:48;20.10;84.30
2941;DHT22;1480;51.456;6.670;2022-07-23T01:35:15;20.00;84.70
2941;DHT22;1480;51.456;6.670;2022-07-23T01:37:43;20.10;84.90
2941;DHT22;1480;51.456;6.670;2022-07-23T01:40:11;20.10;85.10
2941;DHT22;1480;51.456;6.670;2022-07-23T01:42:38;20.10;85.00
2941;DHT22;1480;51.456;6.670;2022-07-23T01:45:08;20.00;84.90
2941;DHT22;1480;51.456;6.670;2022-07-23T01:47:37;20.00;85.00
2941;DHT22;1480;51.456;6.670;2022-07-23T01:50:04;20.00;84.70
2941;DHT22;1480;51.456;6.670;2022-07-23T01:52:55;20.00;84.30
2941;DHT22;1480;51.456;6.670;2022-07-23T01:55:23;19.90;84.50
2941;DHT22;1480;51.456;6.670;2022-07-23T01:57:51;19.80;85.20
2941;DHT22;1480;51.456;6.670;2022-07-23T02:00:21;19.80;85.40
2941;DHT22;1480;51.456;6.670;2022-07-23T02:02:50;19.80;85.80
2941;DHT22;1480;51.456;6.670;2022-07-23T02:05:17;19.80;85.40
2941;DHT22;1480;51.456;6.670;2022-07-23T02:07:45;19.80;85.60
2941;DHT22;1480;51.456;6.670;2022-07-23T02:10:12;19.80;85.30
2941;DHT22;1480;51.456;6.670;2022-07-23T02:12:40;19.80;84.80
2941;DHT22;1480;51.456;6.670;2022-07-23T02:15:09;19.80;84.60
2941;DHT22;1480;51.456;6.670;2022-07-23T02:17:38;19.80;84.90
2941;DHT22;1480;51.456;6.670;2022-07-23T02:20:06;19.70;84.70
2941;DHT22;1480;51.456;6.670;2022-07-23T02:22:34;19.70;85.30
2941;DHT22;1480;51.456;6.670;2022-07-23T02:25:01;19.60;85.30
2941;DHT22;1480;51.456;6.670;2022-07-23T02:27:28;19.70;85.20
2941;DHT22;1480;51.456;6.670;2022-07-23T02:29:57;19.60;85.20
2941;DHT22;1480;51.456;6.670;2022-07-23T02:32:24;19.70;84.70
2941;DHT22;1480;51.456;6.670;2022-07-23T02:34:52;19.70;85.00
2941;DHT22;1480;51.456;6.670;2022-07-23T02:37:20;19.70;84.80
2941;DHT22;1480;51.456;6.670;2022-07-23T02:39:47;19.70;84.30
2941;DHT22;1480;51.456;6.670;2022-07-23T02:42:14;19.70;84.30
2941;DHT22;1480;51.456;6.670;2022-07-23T02:44:42;19.70;84.20
2941;DHT22;1480;51.456;6.670;2022-07-23T02:47:10;19.70;84.00
2941;DHT22;1480;51.456;6.670;2022-07-23T02:49:37;19.60;84.30
2941;DHT22;1480;51.456;6.670;2022-07-23T02:52:05;19.60;84.70
2941;DHT22;1480;51.456;6.670;2022-07-23T02:54:32;19.70;84.40
2941;DHT22;1480;51.456;6.670;2022-07-23T02:56:59;19.70;83.70
2941;DHT22;1480;51.456;6.670;2022-07-23T02:59:26;19.60;84.00
2941;DHT22;1480;51.456;6.670;2022-07-23T03:01:56;19.60;83.80
2941;DHT22;1480;51.456;6.670;2022-07-23T03:04:25;19.50;83.10
2941;DHT22;1480;51.456;6.670;2022-07-23T03:06:52;19.60;83.60
2941;DHT22;1480;51.456;6.670;2022-07-23T03:09:19;19.50;84.10
2941;DHT22;1480;51.456;6.670;2022-07-23T03:11:46;19.50;83.90
2941;DHT22;1480;51.456;6.670;2022-07-23T03:14:13;19.50;82.90
2941;DHT22;1480;51.456;6.670;2022-07-23T03:16:42;19.40;82.80
2941;DHT22;1480;51.456;6.670;2022-07-23T03:19:09;19.50;83.00
2941;DHT22;1480;51.456;6.670;2022-07-23T03:21:37;19.50;83.40
2941;DHT22;1480;51.456;6.670;2022-07-23T03:24:07;19.50;83.70
2941;DHT22;1480;51.456;6.670;2022-07-23T03:26:35;19.50;83.70
2941;DHT22;1480;51.456;6.670;2022-07-23T03:29:03;19.60;84.10
2941;DHT22;1480;51.456;6.670;2022-07-23T03:31:31;19.50;84.00
2941;DHT22;1480;51.456;6.670;2022-07-23T03:33:58;19.50;83.60
2941;DHT22;1480;51.456;6.670;2022-07-23T03:36:25;19.50;83.70
2941;DHT22;1480;51.456;6.670;2022-07-23T03:38:56;19.50;83.70
2941;DHT22;1480;51.456;6.670;2022-07-23T03:41:24;19.60;83.30
2941;DHT22;1480;51.456;6.670;2022-07-23T03:43:51;19.50;83.30
2941;DHT22;1480;51.456;6.670;2022-07-23T03:46:18;19.40;83.40
2941;DHT22;1480;51.456;6.670;2022-07-23T03:48:45;19.40;82.70
2941;DHT22;1480;51.456;6.670;2022-07-23T03:51:13;19.40;83.30
2941;DHT22;1480;51.456;6.670;2022-07-23T03:53:40;19.40;83.30
2941;DHT22;1480;51.456;6.670;2022-07-23T03:56:08;19.40;83.30
2941;DHT22;1480;51.456;6.670;2022-07-23T03:58:35;19.40;83.30
2941;DHT22;1480;51.456;6.670;2022-07-23T04:01:02;19.40;82.90
2941;DHT22;1480;51.456;6.670;2022-07-23T04:03:29;19.50;82.60
2941;DHT22;1480;51.456;6.670;2022-07-23T04:05:57;19.40;83.00
2941;DHT22;1480;51.456;6.670;2022-07-23T04:08:24;19.50;83.30
2941;DHT22;1480;51.456;6.670;2022-07-23T04:10:52;19.40;83.00
2941;DHT22;1480;51.456;6.670;2022-07-23T04:13:22;19.40;83.10
2941;DHT22;1480;51.456;6.670;2022-07-23T04:15:49;19.40;83.70
2941;DHT22;1480;51.456;6.670;2022-07-23T04:18:17;19.20;83.50
2941;DHT22;1480;51.456;6.670;2022-07-23T04:20:54;19.20;83.70
2941;DHT22;1480;51.456;6.670;2022-07-23T04:23:22;19.30;82.50
2941;DHT22;1480;51.456;6.670;2022-07-23T04:25:49;19.30;82.50
2941;DHT22;1480;51.456;6.670;2022-07-23T04:28:17;19.30;82.90
2941;DHT22;1480;51.456;6.670;2022-07-23T04:30:45;19.30;83.60
2941;DHT22;1480;51.456;6.670;2022-07-23T04:33:14;19.40;83.30
2941;DHT22;1480;51.456;6.670;2022-07-23T04:35:41;19.40;83.00
2941;DHT22;1480;51.456;6.670;2022-07-23T04:38:13;19.40;83.20
2941;DHT22;1480;51.456;6.670;2022-07-23T04:40:41;19.40;83.20
2941;DHT22;1480;51.456;6.670;2022-07-23T04:43:08;19.30;82.70
2941;DHT22;1480;51.456;6.670;2022-07-23T04:45:41;19.40;83.10
2941;DHT22;1480;51.456;6.670;2022-07-23T04:48:09;19.30;83.20
2941;DHT22;1480;51.456;6.670;2022-07-23T04:50:36;19.30;83.60
2941;DHT22;1480;51.456;6.670;2022-07-23T04:53:04;19.30;83.70
2941;DHT22;1480;51.456;6.670;2022-07-23T04:55:31;19.30;83.90
2941;DHT22;1480;51.456;6.670;2022-07-23T04:57:58;19.30;84.00
2941;DHT22;1480;51.456;6.670;2022-07-23T05:00:25;19.20;83.50
2941;DHT22;1480;51.456;6.670;2022-07-23T05:02:52;19.30;83.60
2941;DHT22;1480;51.456;6.670;2022-07-23T05:05:21;19.20;84.10
2941;DHT22;1480;51.456;6.670;2022-07-23T05:07:50;19.30;84.00
2941;DHT22;1480;51.456;6.670;2022-07-23T05:10:17;19.30;84.00
2941;DHT22;1480;51.456;6.670;2022-07-23T05:12:46;19.40;84.00
2941;DHT22;1480;51.456;6.670;2022-07-23T05:15:14;19.40;83.50
2941;DHT22;1480;51.456;6.670;2022-07-23T05:17:41;19.50;82.70
2941;DHT22;1480;51.456;6.670;2022-07-23T05:20:12;19.60;82.70
2941;DHT22;1480;51.456;6.670;2022-07-23T05:22:41;19.80;82.00
2941;DHT22;1480;51.456;6.670;2022-07-23T05:25:08;19.80;81.90
2941;DHT22;1480;51.456;6.670;2022-07-23T05:27:35;20.00;82.40
2941;DHT22;1480;51.456;6.670;2022-07-23T05:30:03;19.90;82.90
2941;DHT22;1480;51.456;6.670;2022-07-23T05:32:33;20.20;82.90
2941;DHT22;1480;51.456;6.670;2022-07-23T05:35:10;20.50;82.70
2941;DHT22;1480;51.456;6.670;2022-07-23T05:37:42;20.80;81.90
2941;DHT22;1480;51.456;6.670;2022-07-23T05:40:10;21.20;79.30
2941;DHT22;1480;51.456;6.670;2022-07-23T05:42:38;21.30;79.40
2941;DHT22;1480;51.456;6.670;2022-07-23T05:45:07;21.50;79.20
2941;DHT22;1480;51.456;6.670;2022-07-23T05:47:42;21.50;79.20
2941;DHT22;1480;51.456;6.670;2022-07-23T05:50:12;21.50;76.50
2941;DHT22;1480;51.456;6.670;2022-07-23T05:52:45;21.60;76.60
2941;DHT22;1480;51.456;6.670;2022-07-23T05:55:33;21.60;77.20
2941;DHT22;1480;51.456;6.670;2022-07-23T05:58:00;21.70;76.20
2941;DHT22;1480;51.456;6.670;2022-07-23T06:00:28;21.70;76.00
2941;DHT22;1480;51.456;6.670;2022-07-23T06:02:55;21.70;76.50
2941;DHT22;1480;51.456;6.670;2022-07-23T06:05:24;21.70;76.20
2941;DHT22;1480;51.456;6.670;2022-07-23T06:07:54;21.80;75.70
2941;DHT22;1480;51.456;6.670;2022-07-23T06:10:23;21.80;76.40
2941;DHT22;1480;51.456;6.670;2022-07-23T06:12:51;21.90;75.30
2941;DHT22;1480;51.456;6.670;2022-07-23T06:15:18;22.00;75.90
2941;DHT22;1480;51.456;6.670;2022-07-23T06:17:45;22.10;76.00
2941;DHT22;1480;51.456;6.670;2022-07-23T06:20:12;22.20;75.80
2941;DHT22;1480;51.456;6.670;2022-07-23T06:22:40;22.30;74.90
2941;DHT22;1480;51.456;6.670;2022-07-23T06:25:08;22.30;73.70
2941;DHT22;1480;51.456;6.670;2022-07-23T06:27:35;22.30;73.90
2941;DHT22;1480;51.456;6.670;2022-07-23T06:30:03;22.30;73.60
2941;DHT22;1480;51.456;6.670;2022-07-23T06:32:31;22.30;74.80
2941;DHT22;1480;51.456;6.670;2022-07-23T06:34:59;22.40;74.80
2941;DHT22;1480;51.456;6.670;2022-07-23T06:37:26;22.50;73.50
2941;DHT22;1480;51.456;6.670;2022-07-23T06:39:53;22.60;73.90
2941;DHT22;1480;51.456;6.670;2022-07-23T06:42:21;22.70;73.80
2941;DHT22;1480;51.456;6.670;2022-07-23T06:44:56;22.90;73.10
2941;DHT22;1480;51.456;6.670;2022-07-23T06:47:23;22.70;69.50
2941;DHT22;1480;51.456;6.670;2022-07-23T06:49:50;22.40;72.90
2941;DHT22;1480;51.456;6.670;2022-07-23T06:52:17;22.50;73.50
2941;DHT22;1480;51.456;6.670;2022-07-23T06:54:44;22.60;73.60
2941;DHT22;1480;51.456;6.670;2022-07-23T06:57:11;22.70;73.50
2941;DHT22;1480;51.456;6.670;2022-07-23T06:59:40;22.80;73.20
2941;DHT22;1480;51.456;6.670;2022-07-23T07:02:07;23.00;70.90
2941;DHT22;1480;51.456;6.670;2022-07-23T07:04:34;22.80;71.30
2941;DHT22;1480;51.456;6.670;2022-07-23T07:07:01;22.90;70.50
2941;DHT22;1480;51.456;6.670;2022-07-23T07:09:28;22.70;69.40
2941;DHT22;1480;51.456;6.670;2022-07-23T07:11:55;22.70;71.70
2941;DHT22;1480;51.456;6.670;2022-07-23T07:14:23;22.70;70.40
2941;DHT22;1480;51.456;6.670;2022-07-23T07:16:51;22.90;69.80
2941;DHT22;1480;51.456;6.670;2022-07-23T07:19:19;23.10;70.70
2941;DHT22;1480;51.456;6.670;2022-07-23T07:21:46;23.20;66.60
2941;DHT22;1480;51.456;6.670;2022-07-23T07:24:13;23.20;69.10
2941;DHT22;1480;51.456;6.670;2022-07-23T07:26:40;23.40;68.90
2941;DHT22;1480;51.456;6.670;2022-07-23T07:29:07;23.50;66.30
2941;DHT22;1480;51.456;6.670;2022-07-23T07:31:34;23.60;64.70
2941;DHT22;1480;51.456;6.670;2022-07-23T07:34:02;23.70;61.80
2941;DHT22;1480;51.456;6.670;2022-07-23T07:36:29;23.30;62.00
2941;DHT22;1480;51.456;6.670;2022-07-23T07:38:56;23.30;63.10
2941;DHT22;1480;51.456;6.670;2022-07-23T07:41:23;23.40;62.50
2941;DHT22;1480;51.456;6.670;2022-07-23T07:43:53;23.50;64.50
2941;DHT22;1480;51.456;6.670;2022-07-23T07:46:20;23.50;62.30
2941;DHT22;1480;51.456;6.670;2022-07-23T07:48:49;23.60;61.40
2941;DHT22;1480;51.456;6.670;2022-07-23T07:51:18;23.70;59.10
2941;DHT22;1480;51.456;6.670;2022-07-23T07:53:45;23.70;61.10
2941;DHT22;1480;51.456;6.670;2022-07-23T07:56:12;23.80;59.30
2941;DHT22;1480;51.456;6.670;2022-07-23T07:58:38;23.70;57.50
2941;DHT22;1480;51.456;6.670;2022-07-23T08:01:06;23.40;60.10
2941;DHT22;1480;51.456;6.670;2022-07-23T08:03:33;23.50;61.70
2941;DHT22;1480;51.456;6.670;2022-07-23T08:06:00;23.80;60.20
2941;DHT22;1480;51.456;6.670;2022-07-23T08:08:29;23.90;58.80
2941;DHT22;1480;51.456;6.670;2022-07-23T08:10:56;24.00;58.30
2941;DHT22;1480;51.456;6.670;2022-07-23T08:13:22;24.10;57.90
2941;DHT22;1480;51.456;6.670;2022-07-23T08:15:49;24.30;57.90
2941;DHT22;1480;51.456;6.670;2022-07-23T08:18:18;24.40;56.60
2941;DHT22;1480;51.456;6.670;2022-07-23T08:20:45;24.40;57.10
2941;DHT22;1480;51.456;6.670;2022-07-23T08:23:13;24.40;56.10
2941;DHT22;1480;51.456;6.670;2022-07-23T08:25:42;24.20;57.60
2941;DHT22;1480;51.456;6.670;2022-07-23T08:28:10;24.40;57.00
2941;DHT22;1480;51.456;6.670;2022-07-23T08:30:39;24.40;57.00
2941;DHT22;1480;51.456;6.670;2022-07-23T08:33:08;24.60;56.20
2941;DHT22;1480;51.456;6.670;2022-07-23T08:35:40;24.80;56.50
2941;DHT22;1480;51.456;6.670;2022-07-23T08:38:08;24.90;54.40
2941;DHT22;1480;51.456;6.670;2022-07-23T08:40:37;25.00;54.10
2941;DHT22;1480;51.456;6.670;2022-07-23T08:43:07;25.20;53.50
2941;DHT22;1480;51.456;6.670;2022-07-23T08:45:36;25.20;53.40
2941;DHT22;1480;51.456;6.670;2022-07-23T08:48:06;25.20;51.90
2941;DHT22;1480;51.456;6.670;2022-07-23T08:50:35;25.20;53.80
2941;DHT22;1480;51.456;6.670;2022-07-23T08:53:06;25.10;51.90
2941;DHT22;1480;51.456;6.670;2022-07-23T08:55:34;25.10;53.30
2941;DHT22;1480;51.456;6.670;2022-07-23T08:58:01;25.30;53.40
2941;DHT22;1480;51.456;6.670;2022-07-23T09:00:30;25.50;52.70
2941;DHT22;1480;51.456;6.670;2022-07-23T09:02:57;25.70;53.20
2941;DHT22;1480;51.456;6.670;2022-07-23T09:05:24;25.70;51.50
2941;DHT22;1480;51.456;6.670;2022-07-23T09:08:08;25.70;50.70
2941;DHT22;1480;51.456;6.670;2022-07-23T09:10:59;25.80;50.40
2941;DHT22;1480;51.456;6.670;2022-07-23T09:13:34;25.70;51.00
2941;DHT22;1480;51.456;6.670;2022-07-23T09:16:05;25.80;51.30
2941;DHT22;1480;51.456;6.670;2022-07-23T09:18:35;25.90;50.10
2941;DHT22;1480;51.456;6.670;2022-07-23T09:21:16;25.90;49.10
2941;DHT22;1480;51.456;6.670;2022-07-23T09:23:45;26.00;50.40
2941;DHT22;1480;51.456;6.670;2022-07-23T09:26:34;26.20;50.60
2941;DHT22;1480;51.456;6.670;2022-07-23T09:29:08;26.30;49.60
2941;DHT22;1480;51.456;6.670;2022-07-23T09:31:45;26.30;49.30
2941;DHT22;1480;51.456;6.670;2022-07-23T09:34:15;26.20;49.10
2941;DHT22;1480;51.456;6.670;2022-07-23T09:36:43;26.20;48.80
2941;DHT22;1480;51.456;6.670;2022-07-23T09:39:11;26.20;49.30
2941;DHT22;1480;51.456;6.670;2022-07-23T09:41:42;26.20;49.30
2941;DHT22;1480;51.456;6.670;2022-07-23T09:44:11;26.10;47.70
2941;DHT22;1480;51.456;6.670;2022-07-23T09:46:39;26.20;49.50
2941;DHT22;1480;51.456;6.670;2022-07-23T09:49:16;26.30;47.90
2941;DHT22;1480;51.456;6.670;2022-07-23T09:51:48;26.40;46.60
2941;DHT22;1480;51.456;6.670;2022-07-23T09:54:38;26.20;48.70
2941;DHT22;1480;51.456;6.670;2022-07-23T09:57:07;26.30;46.80
2941;DHT22;1480;51.456;6.670;2022-07-23T09:59:37;26.20;47.90
2941;DHT22;1480;51.456;6.670;2022-07-23T10:02:08;26.30;47.70
2941;DHT22;1480;51.456;6.670;2022-07-23T10:04:48;26.30;47.80
2941;DHT22;1480;51.456;6.670;2022-07-23T10:07:26;26.30;46.80
2941;DHT22;1480;51.456;6.670;2022-07-23T10:10:15;26.30;47.20
2941;DHT22;1480;51.456;6.670;2022-07-23T10:13:00;26.30;48.10
2941;DHT22;1480;51.456;6.670;2022-07-23T10:15:45;26.30;46.70
2941;DHT22;1480;51.456;6.670;2022-07-23T10:18:13;26.60;46.30
2941;DHT22;1480;51.456;6.670;2022-07-23T10:20:42;26.60;44.80
2941;DHT22;1480;51.456;6.670;2022-07-23T10:23:15;26.60;45.60
2941;DHT22;1480;51.456;6.670;2022-07-23T10:25:51;26.60;44.80
2941;DHT22;1480;51.456;6.670;2022-07-23T10:28:39;26.80;45.90
2941;DHT22;1480;51.456;6.670;2022-07-23T10:31:13;26.90;44.80
2941;DHT22;1480;51.456;6.670;2022-07-23T10:33:51;27.00;45.10
2941;DHT22;1480;51.456;6.670;2022-07-23T10:36:26;27.20;44.80
2941;DHT22;1480;51.456;6.670;2022-07-23T10:38:58;27.40;45.10
2941;DHT22;1480;51.456;6.670;2022-07-23T10:41:32;27.40;43.90
2941;DHT22;1480;51.456;6.670;2022-07-23T10:44:06;27.50;44.00
2941;DHT22;1480;51.456;6.670;2022-07-23T10:46:34;27.50;42.30
2941;DHT22;1480;51.456;6.670;2022-07-23T10:49:25;27.30;43.30
2941;DHT22;1480;51.456;6.670;2022-07-23T10:52:19;27.20;41.60
2941;DHT22;1480;51.456;6.670;2022-07-23T10:54:47;26.90;42.10
2941;DHT22;1480;51.456;6.670;2022-07-23T10:57:16;26.70;43.40
2941;DHT22;1480;51.456;6.670;2022-07-23T11:00:14;27.00;43.20
2941;DHT22;1480;51.456;6.670;2022-07-23T11:02:46;27.20;43.50
2941;DHT22;1480;51.456;6.670;2022-07-23T11:05:14;27.00;42.60
2941;DHT22;1480;51.456;6.670;2022-07-23T11:08:14;27.10;43.40
2941;DHT22;1480;51.456;6.670;2022-07-23T11:10:44;27.20;42.70
2941;DHT22;1480;51.456;6.670;2022-07-23T11:13:31;27.30;43.00
2941;DHT22;1480;51.456;6.670;2022-07-23T11:16:15;27.50;42.60
2941;DHT22;1480;51.456;6.670;2022-07-23T11:19:00;27.40;42.70
2941;DHT22;1480;51.456;6.670;2022-07-23T11:21:49;27.40;41.60
2941;DHT22;1480;51.456;6.670;2022-07-23T11:24:20;27.40;41.10
2941;DHT22;1480;51.456;6.670;2022-07-23T11:26:56;27.00;41.10
2941;DHT22;1480;51.456;6.670;2022-07-23T11:29:43;26.90;42.30
2941;DHT22;1480;51.456;6.670;2022-07-23T11:32:35;27.00;41.70
2941;DHT22;1480;51.456;6.670;2022-07-23T11:35:19;27.20;42.50
2941;DHT22;1480;51.456;6.670;2022-07-23T11:37:47;27.30;41.10
2941;DHT22;1480;51.456;6.670;2022-07-23T11:40:16;27.20;40.50
2941;DHT22;1480;51.456;6.670;2022-07-23T11:42:58;27.10;41.30
2941;DHT22;1480;51.456;6.670;2022-07-23T11:45:30;27.10;39.40
2941;DHT22;1480;51.456;6.670;2022-07-23T11:47:57;27.10;39.90
2941;DHT22;1480;51.456;6.670;2022-07-23T11:50:24;27.20;41.40
2941;DHT22;1480;51.456;6.670;2022-07-23T11:52:52;27.20;39.60
2941;DHT22;1480;51.456;6.670;2022-07-23T11:55:21;27.30;40.30
2941;DHT22;1480;51.456;6.670;2022-07-23T11:57:50;27.30;38.20
2941;DHT22;1480;51.456;6.670;2022-07-23T12:00:20;27.30;38.60
2941;DHT22;1480;51.456;6.670;2022-07-23T12:02:48;27.40;40.50
2941;DHT22;1480;51.456;6.670;2022-07-23T12:05:18;27.50;38.80
2941;DHT22;1480;51.456;6.670;2022-07-23T12:07:46;27.70;38.50
2941;DHT22;1480;51.456;6.670;2022-07-23T12:10:16;27.70;38.60
2941;DHT22;1480;51.456;6.670;2022-07-23T12:12:46;27.70;38.20
2941;DHT22;1480;51.456;6.670;2022-07-23T12:15:16;27.60;37.60
2941;DHT22;1480;51.456;6.670;2022-07-23T12:17:45;27.60;39.30
2941;DHT22;1480;51.456;6.670;2022-07-23T12:20:14;27.80;39.90
2941;DHT22;1480;51.456;6.670;2022-07-23T12:22:43;27.90;38.80
2941;DHT22;1480;51.456;6.670;2022-07-23T12:25:12;27.90;39.20
2941;DHT22;1480;51.456;6.670;2022-07-23T12:27:41;27.90;37.00
2941;DHT22;1480;51.456;6.670;2022-07-23T12:30:24;27.90;37.30
2941;DHT22;1480;51.456;6.670;2022-07-23T12:32:52;28.00;36.80
2941;DHT22;1480;51.456;6.670;2022-07-23T12:35:20;28.00;37.80
2941;DHT22;1480;51.456;6.670;2022-07-23T12:37:49;27.90;38.30
2941;DHT22;1480;51.456;6.670;2022-07-23T12:40:29;27.70;38.20
2941;DHT22;1480;51.456;6.670;2022-07-23T12:42:58;27.40;38.10
2941;DHT22;1480;51.456;6.670;2022-07-23T12:45:28;27.20;38.20
2941;DHT22;1480;51.456;6.670;2022-07-23T12:48:05;27.20;39.00
2941;DHT22;1480;51.456;6.670;2022-07-23T12:50:38;27.50;38.60
2941;DHT22;1480;51.456;6.670;2022-07-23T12:53:08;27.50;37.90
2941;DHT22;1480;51.456;6.670;2022-07-23T12:55:36;27.40;37.20
2941;DHT22;1480;51.456;6.670;2022-07-23T12:58:13;27.50;38.10
2941;DHT22;1480;51.456;6.670;2022-07-23T13:00:58;27.60;37.10
2941;DHT22;1480;51.456;6.670;2022-07-23T13:03:28;27.30;37.00
2941;DHT22;1480;51.456;6.670;2022-07-23T13:05:56;27.40;38.00
2941;DHT22;1480;51.456;6.670;2022-07-23T13:08:24;27.60;38.90
2941;DHT22;1480;51.456;6.670;2022-07-23T13:10:51;27.70;37.20
2941;DHT22;1480;51.456;6.670;2022-07-23T13:13:21;27.80;38.30
2941;DHT22;1480;51.456;6.670;2022-07-23T13:15:48;27.80;37.60
2941;DHT22;1480;51.456;6.670;2022-07-23T13:18:17;27.90;38.10
2941;DHT22;1480;51.456;6.670;2022-07-23T13:20:45;28.00;37.90
2941;DHT22;1480;51.456;6.670;2022-07-23T13:23:12;27.80;37.70
2941;DHT22;1480;51.456;6.670;2022-07-23T13:25:40;27.60;38.00
2941;DHT22;1480;51.456;6.670;2022-07-23T13:28:07;27.40;39.10
2941;DHT22;1480;51.456;6.670;2022-07-23T13:30:34;27.40;39.70
2941;DHT22;1480;51.456;6.670;2022-07-23T13:33:03;27.60;37.90
2941;DHT22;1480;51.456;6.670;2022-07-23T13:35:31;27.40;38.50
2941;DHT22;1480;51.456;6.670;2022-07-23T13:37:59;27.60;38.40
2941;DHT22;1480;51.456;6.670;2022-07-23T13:40:26;27.70;37.70
2941;DHT22;1480;51.456;6.670;2022-07-23T13:42:53;27.90;37.50
2941;DHT22;1480;51.456;6.670;2022-07-23T13:45:20;28.00;37.50
2941;DHT22;1480;51.456;6.670;2022-07-23T13:47:47;28.10;37.70
2941;DHT22;1480;51.456;6.670;2022-07-23T13:50:14;28.20;37.30
2941;DHT22;1480;51.456;6.670;2022-07-23T13:52:44;28.40;37.50
2941;DHT22;1480;51.456;6.670;2022-07-23T13:55:12;28.50;37.30
2941;DHT22;1480;51.456;6.670;2022-07-23T13:57:39;28.70;37.10
2941;DHT22;1480;51.456;6.670;2022-07-23T14:00:08;28.80;36.70
2941;DHT22;1480;51.456;6.670;2022-07-23T14:02:38;28.70;37.20
2941;DHT22;1480;51.456;6.670;2022-07-23T14:05:07;28.70;38.50
2941;DHT22;1480;51.456;6.670;2022-07-23T14:07:35;28.40;36.80
2941;DHT22;1480;51.456;6.670;2022-07-23T14:10:04;28.20;37.20
2941;DHT22;1480;51.456;6.670;2022-07-23T14:12:31;28.20;36.90
2941;DHT22;1480;51.456;6.670;2022-07-23T14:14:59;28.40;37.00
2941;DHT22;1480;51.456;6.670;2022-07-23T14:17:26;28.40;37.60
2941;DHT22;1480;51.456;6.670;2022-07-23T14:19:53;28.40;36.60
2941;DHT22;1480;51.456;6.670;2022-07-23T14:22:20;28.50;36.50
2941;DHT22;1480;51.456;6.670;2022-07-23T14:24:47;28.60;37.40
2941;DHT22;1480;51.456;6.670;2022-07-23T14:27:16;28.60;37.90
2941;DHT22;1480;51.456;6.670;2022-07-23T14:29:43;28.50;37.70
2941;DHT22;1480;51.456;6.670;2022-07-23T14:32:10;28.60;37.20
2941;DHT22;1480;51.456;6.670;2022-07-23T14:34:37;28.60;37.40
2941;DHT22;1480;51.456;6.670;2022-07-23T14:37:04;28.50;37.80
2941;DHT22;1480;51.456;6.670;2022-07-23T14:39:31;28.50;37.70
2941;DHT22;1480;51.456;6.670;2022-07-23T14:41:58;28.50;38.30
2941;DHT22;1480;51.456;6.670;2022-07-23T14:44:26;28.40;38.60
2941;DHT22;1480;51.456;6.670;2022-07-23T14:46:53;28.40;38.70
2941;DHT22;1480;51.456;6.670;2022-07-23T14:49:20;28.40;38.30
2941;DHT22;1480;51.456;6.670;2022-07-23T14:51:47;28.40;37.60
2941;DHT22;1480;51.456;6.670;2022-07-23T14:54:14;28.40;37.10
2941;DHT22;1480;51.456;6.670;2022-07-23T14:56:42;28.40;36.90
2941;DHT22;1480;51.456;6.670;2022-07-23T14:59:09;28.30;37.70
2941;DHT22;1480;51.456;6.670;2022-07-23T15:01:38;28.40;37.60
2941;DHT22;1480;51.456;6.670;2022-07-23T15:04:06;28.30;37.70
2941;DHT22;1480;51.456;6.670;2022-07-23T15:06:33;28.30;38.30
2941;DHT22;1480;51.456;6.670;2022-07-23T15:09:00;28.20;38.10
2941;DHT22;1480;51.456;6.670;2022-07-23T15:11:27;28.30;37.40
2941;DHT22;1480;51.456;6.670;2022-07-23T15:13:57;28.30;38.00
2941;DHT22;1480;51.456;6.670;2022-07-23T15:16:24;28.20;37.10
2941;DHT22;1480;51.456;6.670;2022-07-23T15:18:53;28.30;37.50
2941;DHT22;1480;51.456;6.670;2022-07-23T15:21:20;28.40;37.50
2941;DHT22;1480;51.456;6.670;2022-07-23T15:23:47;28.40;37.20
2941;DHT22;1480;51.456;6.670;2022-07-23T15:26:14;28.60;37.90
2941;DHT22;1480;51.456;6.670;2022-07-23T15:28:41;28.70;37.10
2941;DHT22;1480;51.456;6.670;2022-07-23T15:31:08;28.70;36.20
2941;DHT22;1480;51.456;6.670;2022-07-23T15:33:36;28.70;36.70
2941;DHT22;1480;51.456;6.670;2022-07-23T15:36:05;28.70;37.70
2941;DHT22;1480;51.456;6.670;2022-07-23T15:38:32;28.90;37.20
2941;DHT22;1480;51.456;6.670;2022-07-23T15:40:59;28.90;36.40
2941;DHT22;1480;51.456;6.670;2022-07-23T15:43:26;28.90;37.00
2941;DHT22;1480;51.456;6.670;2022-07-23T15:45:53;28.70;37.10
2941;DHT22;1480;51.456;6.670;2022-07-23T15:48:20;28.70;35.70
2941;DHT22;1480;51.456;6.670;2022-07-23T15:50:48;28.60;35.90
2941;DHT22;1480;51.456;6.670;2022-07-23T15:53:16;28.40;36.80
2941;DHT22;1480;51.456;6.670;2022-07-23T15:55:44;28.40;37.50
2941;DHT22;1480;51.456;6.670;2022-07-23T15:58:11;28.60;37.80
2941;DHT22;1480;51.456;6.670;2022-07-23T16:00:38;28.70;38.00
2941;DHT22;1480;51.456;6.670;2022-07-23T16:03:05;28.80;37.90
2941;DHT22;1480;51.456;6.670;2022-07-23T16:05:32;29.00;37.20
2941;DHT22;1480;51.456;6.670;2022-07-23T16:08:00;29.00;36.40
2941;DHT22;1480;51.456;6.670;2022-07-23T16:10:29;29.10;36.90
2941;DHT22;1480;51.456;6.670;2022-07-23T16:12:56;29.00;36.00
2941;DHT22;1480;51.456;6.670;2022-07-23T16:15:23;28.80;36.50
2941;DHT22;1480;51.456;6.670;2022-07-23T16:17:50;28.50;36.60